Wetterdaten: aktuell Montag, 31.08.2026 21:55
Datum Zeit Temp. A. Feuchte A. Luftdruck Regen Wind Richtung Richtung Taupunkt Windchill Windböen
31.08.2026 21:55 18,3 °C 68 % 1017,8 hPa 0,0 l/m² 4,3 km/h (1 Bft) SO 124 ° 12,3 °C 18,3 °C 12,3 km/h (3 Bft)
31.08.2026 20:55 18,7 °C 64 % 1017,4 hPa 0,0 l/m² 3,0 km/h (1 Bft) S-SO 167 ° 11,7 °C 18,7 °C 15,8 km/h (3 Bft)
31.08.2026 19:55 19,9 °C 61 % 1015,9 hPa 0,0 l/m² 6,9 km/h (2 Bft) S 189 ° 12,2 °C 19,9 °C 15,8 km/h (3 Bft)
31.08.2026 18:55 20,6 °C 58 % 1015,5 hPa 0,0 l/m² 5,5 km/h (1 Bft) S 180 ° 12,0 °C 20,6 °C 14,1 km/h (3 Bft)
31.08.2026 17:55 21,3 °C 59 % 1015,1 hPa 0,0 l/m² 6,0 km/h (2 Bft) S-SW 205 ° 13,0 °C 21,3 °C 14,1 km/h (3 Bft)
31.08.2026 16:55 22,3 °C 56 % 1015,4 hPa 0,0 l/m² 7,7 km/h (2 Bft) S-SW 197 ° 13,1 °C 22,3 °C 17,6 km/h (3 Bft)
31.08.2026 15:55 23,0 °C 57 % 1015,1 hPa 0,0 l/m² 10,8 km/h (2 Bft) W-SW 241 ° 14,0 °C 23,0 °C 26,4 km/h (4 Bft)
31.08.2026 14:55 23,1 °C 62 % 1015,3 hPa 0,0 l/m² 8,5 km/h (2 Bft) W-SW 254 ° 15,4 °C 23,1 °C 17,6 km/h (3 Bft)
31.08.2026 13:55 23,1 °C 67 % 1015,5 hPa 0,0 l/m² 6,6 km/h (2 Bft) W 261 ° 16,6 °C 23,1 °C 14,1 km/h (3 Bft)
31.08.2026 12:55 21,5 °C 68 % 1015,9 hPa 0,0 l/m² 4,4 km/h (1 Bft) W 261 ° 15,3 °C 21,5 °C 10,6 km/h (2 Bft)
31.08.2026 11:55 21,0 °C 71 % 1016,1 hPa 0,0 l/m² 9,3 km/h (2 Bft) W-SW 250 ° 15,5 °C 21,0 °C 17,6 km/h (3 Bft)
31.08.2026 10:55 20,4 °C 72 % 1016,2 hPa 0,0 l/m² 9,6 km/h (2 Bft) S-SW 201 ° 15,2 °C 20,4 °C 17,6 km/h (3 Bft)
31.08.2026 09:55 19,9 °C 76 % 1015,8 hPa 0,0 l/m² 6,8 km/h (2 Bft) S-SO 167 ° 15,5 °C 19,9 °C 14,1 km/h (3 Bft)
31.08.2026 08:55 17,8 °C 80 % 1015,6 hPa 0,0 l/m² 4,1 km/h (1 Bft) S-SW 197 ° 14,3 °C 17,8 °C 17,6 km/h (3 Bft)
31.08.2026 07:55 16,9 °C 80 % 1015,0 hPa 0,0 l/m² 2,6 km/h (1 Bft) SO 130 ° 13,4 °C 16,9 °C 15,8 km/h (3 Bft)
31.08.2026 06:55 16,2 °C 79 % 1014,9 hPa 0,2 l/m² 1,1 km/h (1 Bft) O-SO 116 ° 12,6 °C 16,2 °C 7,0 km/h (2 Bft)
31.08.2026 05:55 16,4 °C 77 % 1015,3 hPa 0,4 l/m² 2,5 km/h (1 Bft) S-SW 197 ° 12,4 °C 16,4 °C 15,8 km/h (3 Bft)
31.08.2026 04:55 17,2 °C 78 % 1012,8 hPa 0,0 l/m² 0,0 km/h (0 Bft) O 81 ° 13,3 °C 17,2 °C 0,0 km/h (0 Bft)
31.08.2026 03:55 17,4 °C 78 % 1012,7 hPa 0,0 l/m² 0,1 km/h (0 Bft) O-NO 76 ° 13,5 °C 17,4 °C 3,5 km/h (1 Bft)
31.08.2026 02:55 17,5 °C 79 % 1013,1 hPa 0,0 l/m² 0,2 km/h (0 Bft) O-SO 121 ° 13,8 °C 17,5 °C 7,0 km/h (2 Bft)
31.08.2026 01:55 18,1 °C 79 % 1013,9 hPa 0,0 l/m² 11,6 km/h (2 Bft) O 88 ° 14,4 °C 18,1 °C 21,1 km/h (4 Bft)
31.08.2026 00:55 18,2 °C 79 % 1014,4 hPa 0,0 l/m² 1,4 km/h (1 Bft) O-SO 119 ° 14,5 °C 18,2 °C 7,0 km/h (2 Bft)
30.08.2026 23:55 20,6 °C 76 % 1014,2 hPa 0,0 l/m² 3,5 km/h (1 Bft) O 90 ° 16,2 °C 20,6 °C 12,3 km/h (3 Bft)
30.08.2026 22:55 19,6 °C 76 % 1014,1 hPa 0,0 l/m² 0,1 km/h (0 Bft) O-NO 68 ° 15,2 °C 19,6 °C 3,5 km/h (1 Bft)
30.08.2026 22:00 19,6 °C 76 % 1014,4 hPa 0,0 l/m² 0,0 km/h (0 Bft) O-NO 68 ° 15,2 °C 19,6 °C 0,0 km/h (0 Bft)
_ Min-Zeit 06:15 17:05 04:20 - 22:00 - - 06:15 06:15 22:00
Minimum _ 15,9 °C 54 % 1012,5 hPa - 0,0 km/h (0 Bft) - - 11,5 °C 15,9 °C 0,0 km/h (0 Bft)
_ Max-Zeit 14:30 02:05 21:50 05:45 05:45 - - 13:55 14:30 05:45
Maximum _ 23,8 °C 80 % 1017,8 hPa 0,2 l/m² 17,7 km/h
S-SW (3 Bft)
- - 16,6 °C 23,8 °C 42,2 km/h
S-SW (6 Bft)
Durchschnitt _ 19,6 °C 71 % 1015,0 hPa #0,6 l/m² 5,1 km/h (1 Bft) S-SW - 14,1 °C 19,6 °C 13,3 km/h (3 Bft)